Time;durP1;ratioP1;P1;durP2;ratioP2;P2;SDS_P1;SDS_P2;PMS_P1;PMS_P2;Temp;Humidity;BMP_temperature;BMP_pressure;BME280_temperature;BME280_humidity;BME280_pressure;Samples;Min_cycle;Max_cycle;Signal;HPM_P1;HPM_P2
2023/03/02 00:02:07;;;;;;;21.37;12.47;;;5.80;99.90;;;;;;7386293;19;20318;-72
2023/03/02 00:04:53;;;;;;;20.00;11.70;;;5.80;99.90;;;;;;7383695;19;20467;-72
2023/03/02 00:07:31;;;;;;;20.83;12.33;;;5.90;99.90;;;;;;7387061;19;20146;-72
2023/03/02 00:09:57;;;;;;;20.20;11.80;;;5.90;99.90;;;;;;7388695;19;20140;-73
2023/03/02 00:12:27;;;;;;;20.40;11.57;;;5.80;99.90;;;;;;7386872;19;20209;-73
2023/03/02 00:14:53;;;;;;;19.00;12.00;;;5.70;99.90;;;;;;7387398;19;20142;-72
2023/03/02 00:17:26;;;;;;;26.27;11.80;;;5.70;99.90;;;;;;7386573;19;20142;-73
2023/03/02 00:20:10;;;;;;;16.23;10.97;;;5.70;99.90;;;;;;7386723;19;20134;-72
2023/03/02 00:22:37;;;;;;;20.50;11.57;;;5.70;99.90;;;;;;7385601;19;20923;-73
2023/03/02 00:25:04;;;;;;;19.07;11.40;;;5.70;99.90;;;;;;7385845;19;20222;-73
2023/03/02 00:27:30;;;;;;;21.27;11.97;;;5.70;99.90;;;;;;7386738;19;20138;-73
2023/03/02 00:29:56;;;;;;;20.87;12.20;;;5.70;99.90;;;;;;7386400;19;20134;-73
2023/03/02 00:32:23;;;;;;;22.77;12.03;;;5.70;99.90;;;;;;7387493;19;20315;-72
2023/03/02 00:34:49;;;;;;;20.27;11.50;;;5.60;99.90;;;;;;7388104;19;20137;-72
2023/03/02 00:37:15;;;;;;;21.67;12.27;;;5.60;99.90;;;;;;7386369;19;20150;-73
2023/03/02 00:39:41;;;;;;;20.30;12.10;;;5.60;99.90;;;;;;7386362;19;20138;-72
2023/03/02 00:42:06;;;;;;;20.93;11.77;;;5.60;99.90;;;;;;7388021;19;20837;-71
2023/03/02 00:44:32;;;;;;;26.17;12.63;;;5.50;99.90;;;;;;7385883;19;20143;-72
2023/03/02 00:46:58;;;;;;;18.27;11.10;;;5.60;99.90;;;;;;7386240;19;20284;-73
2023/03/02 00:49:24;;;;;;;18.47;11.90;;;5.40;99.90;;;;;;7387058;19;20131;-73
2023/03/02 00:51:50;;;;;;;19.13;11.73;;;5.40;99.90;;;;;;7385304;19;20667;-73
2023/03/02 00:54:15;;;;;;;19.70;11.67;;;5.40;99.90;;;;;;7385860;19;20130;-73
2023/03/02 00:56:42;;;;;;;18.57;11.53;;;5.30;99.90;;;;;;7384938;19;20167;-73
2023/03/02 00:59:26;;;;;;;18.53;11.50;;;5.00;99.90;;;;;;7385767;19;20158;-73
2023/03/02 01:01:59;;;;;;;20.83;12.17;;;5.00;99.90;;;;;;7384782;19;20146;-72
2023/03/02 01:04:28;;;;;;;22.47;12.77;;;4.90;99.90;;;;;;7383445;19;21008;-73
2023/03/02 01:07:03;;;;;;;20.07;12.50;;;4.80;99.90;;;;;;7384863;19;20134;-73
2023/03/02 01:09:29;;;;;;;22.33;12.97;;;4.90;99.90;;;;;;7385231;19;20174;-73
2023/03/02 01:11:55;;;;;;;20.17;12.13;;;4.80;99.90;;;;;;7381824;19;20150;-73
2023/03/02 01:14:22;;;;;;;20.03;12.53;;;4.90;99.90;;;;;;7385110;19;20483;-73
2023/03/02 01:16:48;;;;;;;21.50;11.63;;;4.80;99.90;;;;;;7387945;19;20724;-73
2023/03/02 01:19:14;;;;;;;19.90;11.67;;;4.90;99.90;;;;;;7392179;19;20154;-72
2023/03/02 01:21:43;;;;;;;20.57;10.93;;;4.60;99.90;;;;;;7391770;19;20158;-73
2023/03/02 01:24:10;;;;;;;21.43;12.23;;;4.40;99.90;;;;;;7392531;19;20150;-73
2023/03/02 01:26:36;;;;;;;22.00;12.70;;;4.50;99.90;;;;;;7392658;19;20141;-74
2023/03/02 01:29:03;;;;;;;19.73;12.17;;;4.40;99.90;;;;;;7393204;19;20210;-72
2023/03/02 01:31:29;;;;;;;20.80;11.97;;;4.60;99.90;;;;;;7392454;19;20143;-74
2023/03/02 01:33:55;;;;;;;19.87;12.07;;;4.60;99.90;;;;;;7391219;19;20189;-73
2023/03/02 01:36:22;;;;;;;18.90;12.10;;;4.50;99.90;;;;;;7392017;19;20127;-74
2023/03/02 01:38:48;;;;;;;23.97;13.57;;;4.40;99.90;;;;;;7391995;19;20677;-74
2023/03/02 01:41:14;;;;;;;23.97;13.47;;;4.50;99.90;;;;;;7393606;19;20154;-75
2023/03/02 01:43:40;;;;;;;22.23;12.13;;;4.50;99.90;;;;;;7394315;19;20586;-74
2023/03/02 01:46:24;;;;;;;21.97;12.83;;;4.40;99.90;;;;;;7392784;19;20146;-72
2023/03/02 01:48:56;;;;;;;18.00;11.67;;;4.20;99.90;;;;;;7391452;19;20218;-72
2023/03/02 01:51:25;;;;;;;19.80;12.37;;;4.20;99.90;;;;;;7391994;19;20149;-74
2023/03/02 01:53:57;;;;;;;19.57;12.23;;;4.60;99.90;;;;;;7391756;19;20157;-73
2023/03/02 01:56:28;;;;;;;21.60;11.97;;;4.70;99.90;;;;;;7392383;19;20915;-73
2023/03/02 01:59:02;;;;;;;21.37;12.67;;;4.50;99.90;;;;;;7390869;19;20176;-73
2023/03/02 02:01:34;;;;;;;20.60;12.53;;;4.70;99.90;;;;;;7391768;19;20163;-76
2023/03/02 02:04:00;;;;;;;24.57;13.40;;;4.90;99.90;;;;;;7390976;19;20638;-76
2023/03/02 02:06:47;;;;;;;21.87;12.57;;;5.00;99.90;;;;;;7391469;19;20154;-75
2023/03/02 02:09:16;;;;;;;21.20;12.67;;;5.00;99.90;;;;;;7390768;19;20157;-77
2023/03/02 02:11:43;;;;;;;25.13;12.83;;;5.00;99.90;;;;;;7390524;19;20162;-77
2023/03/02 02:14:09;;;;;;;26.13;13.20;;;5.00;99.90;;;;;;7392546;19;20214;-77
2023/03/02 02:16:36;;;;;;;20.37;13.00;;;4.90;99.90;;;;;;7392012;19;20134;-76
2023/03/02 02:19:09;;;;;;;20.90;12.70;;;4.90;99.90;;;;;;7389551;19;20154;-76
2023/03/02 02:21:35;;;;;;;22.80;12.87;;;4.90;99.90;;;;;;7390723;19;20181;-76
2023/03/02 02:24:12;;;;;;;23.43;14.10;;;4.90;99.90;;;;;;7390912;19;20257;-76
2023/03/02 02:26:44;;;;;;;23.37;12.70;;;4.80;99.90;;;;;;7390451;19;20150;-77
2023/03/02 02:29:17;;;;;;;22.87;12.70;;;4.80;99.90;;;;;;7390751;19;20146;-75
2023/03/02 02:31:55;;;;;;;22.27;12.93;;;4.80;99.90;;;;;;7392047;19;20222;-76
2023/03/02 02:34:34;;;;;;;26.33;13.60;;;4.70;99.90;;;;;;7391723;19;20150;-76
2023/03/02 02:37:26;;;;;;;22.43;12.50;;;4.80;99.90;;;;;;7389411;19;20237;-76
2023/03/02 02:39:52;;;;;;;21.93;13.40;;;4.80;99.90;;;;;;7389677;19;20150;-76
2023/03/02 02:42:31;;;;;;;20.57;12.80;;;4.70;99.90;;;;;;7392676;19;20127;-77
2023/03/02 02:45:03;;;;;;;21.63;12.40;;;4.70;99.90;;;;;;7389252;19;20157;-76
2023/03/02 02:47:32;;;;;;;25.23;13.93;;;4.70;99.90;;;;;;7391868;19;20158;-76
2023/03/02 02:49:59;;;;;;;22.43;13.80;;;4.80;99.90;;;;;;7390239;19;20254;-75
2023/03/02 02:52:27;;;;;;;23.90;13.47;;;4.60;99.90;;;;;;7390087;19;20135;-76
2023/03/02 02:54:55;;;;;;;21.23;12.93;;;4.80;99.90;;;;;;7391445;19;20146;-75
2023/03/02 02:57:24;;;;;;;24.67;13.63;;;4.60;99.90;;;;;;7388268;19;20114;-76
2023/03/02 02:59:53;;;;;;;21.77;13.33;;;4.70;99.90;;;;;;7390354;19;20209;-76
2023/03/02 03:02:23;;;;;;;23.43;12.97;;;4.60;99.90;;;;;;7389277;19;20151;-75
2023/03/02 03:04:49;;;;;;;21.20;13.37;;;4.60;99.90;;;;;;7388349;19;20690;-77
2023/03/02 03:07:22;;;;;;;23.13;14.17;;;4.80;99.90;;;;;;7387003;19;20166;-75
2023/03/02 03:09:54;;;;;;;26.00;14.20;;;4.60;99.90;;;;;;7383440;19;20135;-76
2023/03/02 03:12:23;;;;;;;25.50;14.10;;;4.50;99.90;;;;;;7389084;19;20135;-75
2023/03/02 03:14:49;;;;;;;23.87;14.17;;;4.60;99.90;;;;;;7390186;19;20147;-76
2023/03/02 03:17:15;;;;;;;25.70;14.33;;;4.60;99.90;;;;;;7388691;19;20150;-76
2023/03/02 03:19:43;;;;;;;29.83;14.07;;;4.70;99.90;;;;;;7387901;19;20150;-75
2023/03/02 03:22:11;;;;;;;22.47;13.37;;;4.80;99.90;;;;;;7387235;19;20178;-76
2023/03/02 03:24:38;;;;;;;22.53;13.23;;;4.70;99.90;;;;;;7388442;19;20251;-76
2023/03/02 03:27:06;;;;;;;24.40;13.50;;;4.60;99.90;;;;;;7388813;19;20494;-78
2023/03/02 03:29:33;;;;;;;23.93;13.50;;;4.50;99.90;;;;;;7388711;19;20239;-76
2023/03/02 03:32:00;;;;;;;21.73;12.87;;;4.60;99.90;;;;;;7390636;19;20138;-76
2023/03/02 03:34:27;;;;;;;22.27;13.33;;;4.70;99.90;;;;;;7388464;19;20143;-76
2023/03/02 03:36:52;;;;;;;26.00;14.70;;;4.60;99.90;;;;;;7387864;19;20274;-76
2023/03/02 03:39:19;;;;;;;21.87;12.67;;;4.70;99.90;;;;;;7378948;19;20171;-77
2023/03/02 03:41:44;;;;;;;25.90;13.40;;;4.70;99.90;;;;;;7388302;19;20134;-76
2023/03/02 03:44:13;;;;;;;22.87;13.87;;;4.70;99.90;;;;;;7388245;19;20750;-77
2023/03/02 03:46:39;;;;;;;21.97;12.90;;;4.60;99.90;;;;;;7390706;19;20158;-76
2023/03/02 03:49:06;;;;;;;25.27;13.67;;;4.50;99.90;;;;;;7388038;19;20560;-76
2023/03/02 03:51:34;;;;;;;26.83;14.57;;;4.20;99.90;;;;;;7388177;19;20143;-77
2023/03/02 03:54:04;;;;;;;24.07;13.53;;;4.20;99.90;;;;;;7389472;19;20149;-77
2023/03/02 03:56:32;;;;;;;23.37;13.50;;;4.00;99.90;;;;;;7388124;19;20170;-76
2023/03/02 03:59:05;;;;;;;19.53;12.57;;;3.80;99.90;;;;;;7388215;19;20130;-77
2023/03/02 04:01:43;;;;;;;23.87;14.20;;;4.00;99.90;;;;;;7385231;19;20154;-76
2023/03/02 04:04:14;;;;;;;24.20;13.80;;;4.10;99.90;;;;;;7384870;19;20630;-76
2023/03/02 04:06:40;;;;;;;24.40;13.47;;;3.80;99.90;;;;;;7387899;19;20575;-77
2023/03/02 04:09:06;;;;;;;24.17;13.70;;;3.90;99.90;;;;;;7388893;19;20138;-76
2023/03/02 04:11:43;;;;;;;23.30;13.83;;;4.00;99.90;;;;;;7383322;19;20176;-75
2023/03/02 04:14:10;;;;;;;21.90;13.30;;;4.10;99.90;;;;;;7385682;19;20533;-77
2023/03/02 04:16:36;;;;;;;24.30;13.63;;;3.90;99.90;;;;;;7389516;19;20210;-77
2023/03/02 04:19:08;;;;;;;23.17;12.90;;;4.10;99.90;;;;;;7386497;19;20472;-76
2023/03/02 04:21:43;;;;;;;24.23;14.17;;;4.20;99.90;;;;;;7388012;19;20180;-76
2023/03/02 04:24:11;;;;;;;21.27;13.43;;;4.30;99.90;;;;;;7388913;19;20466;-75
2023/03/02 04:26:39;;;;;;;22.37;13.50;;;4.50;99.90;;;;;;7388695;19;20900;-76
2023/03/02 04:29:05;;;;;;;21.70;12.80;;;4.50;99.90;;;;;;7386737;19;20153;-76
2023/03/02 04:31:31;;;;;;;21.17;12.80;;;4.40;99.90;;;;;;7387808;19;20643;-76
2023/03/02 04:33:57;;;;;;;22.73;13.23;;;4.40;99.90;;;;;;7388714;19;20127;-77
2023/03/02 04:36:23;;;;;;;24.23;13.73;;;4.40;99.90;;;;;;7389615;19;20739;-76
2023/03/02 04:38:50;;;;;;;23.87;14.00;;;4.40;99.90;;;;;;7385170;19;20154;-75
2023/03/02 04:41:16;;;;;;;23.37;13.00;;;4.30;99.90;;;;;;7379226;19;20139;-75
2023/03/02 04:43:42;;;;;;;25.10;13.83;;;4.20;99.90;;;;;;7386462;19;20139;-76
2023/03/02 04:46:20;;;;;;;25.93;13.90;;;4.10;99.90;;;;;;7385526;19;20142;-75
2023/03/02 04:48:46;;;;;;;24.27;13.67;;;4.20;99.90;;;;;;7388871;19;20551;-75
2023/03/02 04:51:22;;;;;;;22.23;13.40;;;4.30;99.90;;;;;;7392208;19;20150;-76
2023/03/02 04:53:50;;;;;;;24.17;13.57;;;4.40;99.90;;;;;;7395043;19;20126;-75
2023/03/02 04:56:15;;;;;;;24.10;13.60;;;4.30;99.90;;;;;;7395026;19;20130;-75
2023/03/02 04:58:41;;;;;;;22.47;12.10;;;4.20;99.90;;;;;;7391240;19;20143;-76
2023/03/02 05:01:09;;;;;;;21.80;13.40;;;4.30;99.90;;;;;;7393174;19;20153;-76
2023/03/02 05:03:34;;;;;;;25.40;13.83;;;4.40;99.90;;;;;;7392652;19;20162;-78
2023/03/02 05:06:02;;;;;;;26.93;14.03;;;4.50;99.90;;;;;;7392965;19;20146;-77
2023/03/02 05:08:29;;;;;;;22.90;13.80;;;4.50;99.90;;;;;;7394202;19;20134;-75
2023/03/02 05:10:55;;;;;;;23.20;12.73;;;4.60;99.90;;;;;;7393756;19;20166;-76
2023/03/02 05:13:21;;;;;;;23.40;13.10;;;4.60;99.90;;;;;;7393755;19;20954;-77
2023/03/02 05:15:50;;;;;;;22.67;12.93;;;4.70;99.90;;;;;;7391916;19;20146;-79
2023/03/02 05:18:16;;;;;;;22.57;12.50;;;4.70;99.90;;;;;;7391661;19;20152;-76
2023/03/02 05:20:42;;;;;;;24.47;12.77;;;4.70;99.90;;;;;;7394099;19;20151;-77
2023/03/02 05:23:10;;;;;;;21.17;12.63;;;4.80;99.90;;;;;;7390065;19;20178;-76
2023/03/02 05:25:37;;;;;;;31.50;16.37;;;4.70;99.90;;;;;;7392405;19;20151;-77
2023/03/02 05:28:03;;;;;;;27.53;14.50;;;4.80;99.90;;;;;;7395029;19;20175;-78
2023/03/02 05:30:31;;;;;;;20.70;13.33;;;4.70;99.90;;;;;;7391824;19;20139;-77
2023/03/02 05:32:57;;;;;;;24.97;13.90;;;4.70;99.90;;;;;;7392752;19;20139;-77
2023/03/02 05:35:26;;;;;;;22.73;13.83;;;4.80;99.90;;;;;;7394205;19;20143;-76
2023/03/02 05:37:52;;;;;;;22.73;13.20;;;4.70;99.90;;;;;;7390360;19;20163;-76
2023/03/02 05:40:20;;;;;;;21.80;12.67;;;4.80;99.90;;;;;;7391527;19;20146;-76
2023/03/02 05:42:47;;;;;;;24.30;14.00;;;4.80;99.90;;;;;;7393171;19;20138;-77
2023/03/02 05:45:25;;;;;;;22.10;13.20;;;4.70;99.90;;;;;;7391108;19;20146;-75
2023/03/02 05:47:51;;;;;;;24.33;12.93;;;4.70;99.90;;;;;;7389358;19;20139;-77
2023/03/02 05:50:20;;;;;;;26.43;15.40;;;4.70;99.90;;;;;;7390561;19;20161;-76
2023/03/02 05:52:46;;;;;;;24.47;12.90;;;4.70;99.90;;;;;;7389936;19;20160;-77
2023/03/02 05:55:13;;;;;;;22.37;13.70;;;4.60;99.90;;;;;;7390951;19;20631;-76
2023/03/02 05:57:39;;;;;;;20.10;12.20;;;4.50;99.90;;;;;;7391211;19;20587;-77
2023/03/02 06:00:07;;;;;;;23.13;13.07;;;4.60;99.90;;;;;;7392049;19;20173;-75
2023/03/02 06:02:33;;;;;;;26.33;14.23;;;4.60;99.90;;;;;;7389311;19;20640;-76
2023/03/02 06:04:58;;;;;;;23.97;13.43;;;4.60;99.90;;;;;;7389323;19;20155;-77
2023/03/02 06:07:26;;;;;;;22.83;13.47;;;4.60;99.90;;;;;;7387979;19;20159;-76
2023/03/02 06:09:51;;;;;;;27.53;13.20;;;4.60;99.90;;;;;;7392812;19;20161;-77
2023/03/02 06:12:17;;;;;;;26.03;14.03;;;4.70;99.90;;;;;;7390142;19;20660;-76
2023/03/02 06:14:43;;;;;;;24.07;13.43;;;4.70;99.90;;;;;;7390300;19;20591;-78
2023/03/02 06:17:12;;;;;;;25.87;13.60;;;4.70;99.90;;;;;;7389240;19;20135;-76
2023/03/02 06:19:37;;;;;;;28.03;13.63;;;4.60;99.90;;;;;;7390474;19;20599;-76
2023/03/02 06:22:06;;;;;;;24.23;13.40;;;4.70;99.90;;;;;;7389542;19;20238;-76
2023/03/02 06:24:32;;;;;;;23.83;13.83;;;4.40;99.90;;;;;;7390460;19;20147;-75
2023/03/02 06:26:58;;;;;;;26.63;14.30;;;4.50;99.90;;;;;;7389047;19;20130;-75
2023/03/02 06:29:23;;;;;;;24.43;14.00;;;4.70;99.90;;;;;;7390024;19;20498;-77
2023/03/02 06:31:49;;;;;;;23.50;13.77;;;4.40;99.90;;;;;;7385717;19;20565;-75
2023/03/02 06:34:15;;;;;;;23.33;13.70;;;4.50;99.90;;;;;;7389418;19;20146;-77
2023/03/02 06:36:40;;;;;;;23.97;13.40;;;4.70;99.90;;;;;;7387648;19;20147;-77
2023/03/02 06:39:14;;;;;;;24.27;13.97;;;4.70;99.90;;;;;;7391968;19;20138;-75
2023/03/02 06:41:45;;;;;;;22.27;13.33;;;4.80;99.90;;;;;;7392801;19;20153;-77
2023/03/02 06:44:14;;;;;;;23.13;14.00;;;4.80;99.90;;;;;;7390123;19;20237;-76
2023/03/02 06:46:41;;;;;;;24.27;13.07;;;4.80;99.90;;;;;;7390027;19;20147;-77
2023/03/02 06:49:08;;;;;;;26.27;15.00;;;4.90;99.90;;;;;;7389039;19;20135;-77
2023/03/02 06:51:34;;;;;;;23.53;14.30;;;4.90;99.90;;;;;;7385515;19;20603;-77
2023/03/02 06:54:00;;;;;;;24.47;13.17;;;4.90;99.90;;;;;;7388283;19;20174;-77
2023/03/02 06:56:26;;;;;;;23.03;13.80;;;4.90;99.90;;;;;;7386003;19;20138;-76
2023/03/02 06:58:52;;;;;;;21.30;13.43;;;4.90;99.90;;;;;;7384791;19;20210;-78
2023/03/02 07:01:18;;;;;;;29.00;13.47;;;4.90;99.90;;;;;;7389634;19;20617;-77
2023/03/02 07:03:44;;;;;;;28.07;14.50;;;4.90;99.90;;;;;;7382014;19;20199;-79
2023/03/02 07:06:13;;;;;;;24.13;13.90;;;5.00;99.90;;;;;;7390013;19;20161;-77
2023/03/02 07:08:42;;;;;;;22.30;13.47;;;5.00;99.90;;;;;;7388435;19;20142;-78
2023/03/02 07:11:10;;;;;;;21.73;13.67;;;4.90;99.90;;;;;;7390350;19;20145;-77
2023/03/02 07:13:37;;;;;;;23.17;13.53;;;5.00;99.90;;;;;;7386877;19;20143;-79
2023/03/02 07:16:08;;;;;;;24.90;13.10;;;5.00;99.90;;;;;;7388529;19;20218;-80
2023/03/02 07:18:34;;;;;;;24.03;12.30;;;4.90;99.90;;;;;;7387366;19;20150;-80
2023/03/02 07:21:00;;;;;;;25.80;12.70;;;4.90;99.90;;;;;;7388114;19;20134;-77
2023/03/02 07:23:26;;;;;;;26.10;14.13;;;4.90;99.90;;;;;;7390832;19;20202;-78
2023/03/02 07:25:52;;;;;;;22.37;12.67;;;4.80;99.90;;;;;;7384742;19;20234;-77
2023/03/02 07:28:17;;;;;;;22.83;13.37;;;4.90;99.90;;;;;;7387741;19;20157;-80
2023/03/02 07:30:43;;;;;;;20.67;12.30;;;5.00;99.90;;;;;;7387749;19;20472;-80
2023/03/02 07:33:09;;;;;;;23.63;13.10;;;5.00;99.90;;;;;;7392512;19;20166;-80
2023/03/02 07:35:35;;;;;;;23.83;13.07;;;5.10;99.90;;;;;;7387248;19;20860;-80
2023/03/02 07:38:00;;;;;;;25.13;12.90;;;5.10;99.90;;;;;;7387435;19;20878;-78
2023/03/02 07:40:26;;;;;;;23.00;12.60;;;5.10;99.90;;;;;;7391068;19;20138;-79
2023/03/02 07:42:52;;;;;;;27.27;12.47;;;5.10;99.90;;;;;;7391687;19;20166;-80
2023/03/02 07:45:23;;;;;;;26.73;12.70;;;5.10;99.90;;;;;;7392805;19;20610;-79
2023/03/02 07:47:50;;;;;;;22.23;13.13;;;5.10;99.90;;;;;;7388537;19;20145;-77
2023/03/02 07:50:16;;;;;;;26.00;13.70;;;5.10;99.90;;;;;;7381336;19;20151;-77
2023/03/02 07:52:41;;;;;;;22.20;13.33;;;5.10;99.90;;;;;;7386447;19;20150;-76
2023/03/02 07:55:08;;;;;;;20.80;12.00;;;5.20;99.90;;;;;;7386098;19;20141;-76
2023/03/02 07:57:34;;;;;;;20.67;12.50;;;5.30;99.90;;;;;;7387813;19;20582;-77
2023/03/02 08:00:00;;;;;;;21.90;12.23;;;5.30;99.90;;;;;;7387124;19;20179;-77
2023/03/02 08:02:26;;;;;;;23.90;12.50;;;5.40;99.90;;;;;;7386371;19;20138;-76
2023/03/02 08:04:52;;;;;;;25.17;12.90;;;5.30;99.90;;;;;;7384406;19;20170;-76
2023/03/02 08:07:18;;;;;;;21.73;13.10;;;5.30;99.90;;;;;;7385189;19;20194;-77
2023/03/02 08:09:43;;;;;;;22.80;13.17;;;5.40;99.90;;;;;;7385260;19;20146;-76
2023/03/02 08:12:09;;;;;;;20.60;12.40;;;5.50;99.90;;;;;;7383935;19;20146;-78
2023/03/02 08:14:36;;;;;;;22.97;11.83;;;5.60;99.90;;;;;;7385088;19;20150;-79
2023/03/02 08:17:04;;;;;;;22.37;12.27;;;5.40;99.90;;;;;;7383178;19;20194;-77
2023/03/02 08:19:30;;;;;;;23.47;13.27;;;5.10;99.90;;;;;;7386996;19;20214;-78
2023/03/02 08:21:56;;;;;;;27.17;13.70;;;5.30;99.90;;;;;;7385661;19;20167;-78
2023/03/02 08:24:22;;;;;;;22.00;12.43;;;5.40;99.90;;;;;;7385197;19;20146;-78
2023/03/02 08:26:48;;;;;;;23.17;13.17;;;5.40;99.90;;;;;;7386142;19;20241;-79
2023/03/02 08:29:15;;;;;;;20.50;12.00;;;5.50;99.90;;;;;;7385577;19;20138;-80
2023/03/02 08:31:40;;;;;;;24.77;12.40;;;5.50;99.90;;;;;;7385348;19;20183;-81
2023/03/02 08:34:06;;;;;;;22.13;11.93;;;5.60;99.90;;;;;;7385507;19;20154;-80
2023/03/02 08:36:32;;;;;;;22.40;12.10;;;5.60;99.90;;;;;;7380210;19;20158;-78
2023/03/02 08:38:58;;;;;;;18.83;11.87;;;5.80;99.90;;;;;;7381985;19;20130;-75
2023/03/02 08:41:24;;;;;;;22.87;12.33;;;5.90;99.90;;;;;;7384123;19;20694;-75
2023/03/02 08:43:53;;;;;;;21.60;13.03;;;6.10;99.90;;;;;;7379767;19;20154;-75
2023/03/02 08:46:19;;;;;;;22.00;11.77;;;6.10;99.90;;;;;;7380593;19;20239;-75
2023/03/02 08:48:46;;;;;;;26.37;13.07;;;6.00;99.90;;;;;;7383912;19;20161;-76
2023/03/02 08:51:17;;;;;;;20.63;11.93;;;6.20;99.90;;;;;;7385158;19;20179;-75
2023/03/02 08:53:45;;;;;;;19.43;11.67;;;6.40;99.90;;;;;;7383046;19;20209;-75
2023/03/02 08:56:18;;;;;;;19.90;11.53;;;6.20;99.90;;;;;;7386456;19;20679;-74
2023/03/02 08:58:44;;;;;;;21.10;12.23;;;5.60;99.90;;;;;;7381319;19;20153;-76
2023/03/02 09:01:18;;;;;;;26.37;12.40;;;5.90;99.90;;;;;;7378512;19;20154;-77
2023/03/02 09:03:44;;;;;;;20.23;11.77;;;5.80;99.90;;;;;;7383134;19;20150;-76
2023/03/02 09:06:10;;;;;;;20.60;11.77;;;6.00;99.90;;;;;;7385015;19;20203;-78
2023/03/02 09:08:36;;;;;;;20.97;11.80;;;5.90;99.90;;;;;;7383860;19;20158;-74
2023/03/02 09:11:02;;;;;;;19.97;11.90;;;6.30;99.90;;;;;;7386056;19;20154;-76
2023/03/02 09:13:28;;;;;;;25.07;12.33;;;6.40;99.90;;;;;;7385440;19;20149;-77
2023/03/02 09:15:54;;;;;;;21.73;11.77;;;6.30;99.90;;;;;;7384098;19;20229;-75
2023/03/02 09:18:20;;;;;;;23.00;12.20;;;6.30;99.90;;;;;;7383732;19;20162;-77
2023/03/02 09:20:52;;;;;;;18.67;11.57;;;6.50;99.90;;;;;;7384409;19;20202;-77
2023/03/02 09:23:19;;;;;;;18.60;11.53;;;6.70;99.90;;;;;;7381395;19;20198;-76
2023/03/02 09:25:47;;;;;;;21.40;11.90;;;6.80;99.90;;;;;;7385477;19;20146;-77
2023/03/02 09:28:14;;;;;;;20.77;12.20;;;6.80;99.90;;;;;;7389838;19;20127;-77
2023/03/02 09:30:40;;;;;;;20.33;12.27;;;6.40;99.90;;;;;;7389325;19;20483;-77
2023/03/02 09:33:06;;;;;;;20.30;12.27;;;6.60;99.90;;;;;;7389226;19;20159;-76
2023/03/02 09:35:33;;;;;;;20.27;12.47;;;6.70;99.90;;;;;;7382673;19;20157;-77
2023/03/02 09:37:58;;;;;;;18.40;10.87;;;6.60;99.90;;;;;;7387990;19;20145;-75
2023/03/02 09:40:26;;;;;;;21.27;12.17;;;6.80;99.90;;;;;;7392812;19;20221;-76
2023/03/02 09:43:39;;;;;;;18.47;11.30;;;6.80;99.90;;;;;;7392784;19;20165;-76
2023/03/02 09:46:43;;;;;;;18.67;11.60;;;6.90;99.90;;;;;;7392100;19;20138;-77
2023/03/02 09:49:39;;;;;;;22.67;12.60;;;6.90;99.90;;;;;;7392765;19;20518;-78
2023/03/02 09:52:34;;;;;;;21.50;11.73;;;7.00;99.90;;;;;;7393378;19;20146;-76
2023/03/02 09:55:27;;;;;;;21.17;11.60;;;7.20;99.90;;;;;;7391298;19;20171;-77
2023/03/02 09:57:54;;;;;;;19.77;11.23;;;7.30;99.90;;;;;;7388270;19;20143;-76
2023/03/02 10:00:35;;;;;;;22.80;12.80;;;7.30;99.90;;;;;;7390655;19;20145;-76
2023/03/02 10:03:06;;;;;;;20.03;12.10;;;7.40;99.90;;;;;;7390349;19;20170;-76
2023/03/02 10:05:40;;;;;;;21.23;11.40;;;7.50;99.90;;;;;;7388747;19;20126;-75
2023/03/02 10:08:15;;;;;;;20.80;12.23;;;7.50;99.90;;;;;;7389051;19;20145;-75
2023/03/02 10:10:56;;;;;;;20.70;11.83;;;7.80;99.90;;;;;;7390098;19;20607;-75
2023/03/02 10:13:31;;;;;;;20.93;11.27;;;7.90;99.90;;;;;;7389712;19;20142;-75
2023/03/02 10:15:57;;;;;;;20.67;11.53;;;8.00;99.90;;;;;;7390500;19;20161;-75
2023/03/02 10:18:43;;;;;;;19.43;12.00;;;8.00;99.90;;;;;;7386570;19;20142;-76
2023/03/02 10:21:28;;;;;;;18.70;11.37;;;8.10;99.90;;;;;;7391613;19;20130;-74
2023/03/02 10:24:12;;;;;;;18.53;10.40;;;8.00;99.90;;;;;;7384854;19;20155;-76
2023/03/02 10:26:47;;;;;;;15.37;10.30;;;8.00;99.90;;;;;;7388523;19;20210;-74
2023/03/02 10:29:43;;;;;;;21.37;11.47;;;8.00;99.90;;;;;;7383688;19;20164;-76
2023/03/02 10:32:18;;;;;;;20.30;11.80;;;7.90;99.90;;;;;;7387556;19;20151;-75
2023/03/02 10:34:45;;;;;;;19.63;11.63;;;7.80;99.90;;;;;;7390610;19;20607;-74
2023/03/02 10:37:21;;;;;;;17.10;10.67;;;7.70;99.90;;;;;;7388095;19;20134;-75
2023/03/02 10:39:48;;;;;;;21.00;10.63;;;7.60;99.90;;;;;;7389983;19;20138;-75
2023/03/02 10:42:39;;;;;;;16.27;10.17;;;7.80;99.90;;;;;;7386265;19;20568;-77
2023/03/02 10:45:20;;;;;;;20.90;11.83;;;7.90;99.90;;;;;;7390918;19;20176;-76
2023/03/02 10:47:45;;;;;;;20.10;11.27;;;8.20;99.90;;;;;;7388510;19;20218;-75
2023/03/02 10:50:22;;;;;;;17.33;11.07;;;8.40;99.90;;;;;;7389394;19;20168;-76
2023/03/02 10:52:49;;;;;;;19.90;12.77;;;8.70;99.90;;;;;;7389814;19;20166;-76
2023/03/02 10:55:15;;;;;;;17.53;10.80;;;8.90;99.90;;;;;;7389278;19;20172;-76
2023/03/02 10:57:45;;;;;;;21.50;11.90;;;9.00;99.90;;;;;;7387240;19;20131;-76
2023/03/02 11:00:22;;;;;;;21.30;11.73;;;9.10;99.90;;;;;;7384128;19;20167;-79
2023/03/02 11:02:57;;;;;;;18.73;11.33;;;9.00;99.90;;;;;;7386056;19;20130;-77
2023/03/02 11:05:33;;;;;;;19.27;11.47;;;8.90;99.90;;;;;;7387295;19;20140;-76
2023/03/02 11:08:15;;;;;;;23.63;11.57;;;8.70;99.90;;;;;;7387645;19;20162;-75
2023/03/02 11:10:52;;;;;;;20.17;11.27;;;8.60;99.90;;;;;;7386059;19;20211;-75
2023/03/02 11:13:33;;;;;;;18.50;11.47;;;8.70;99.90;;;;;;7386692;19;20169;-76
2023/03/02 11:16:00;;;;;;;16.93;11.30;;;8.80;99.90;;;;;;7389757;19;20471;-77
2023/03/02 11:18:54;;;;;;;17.90;11.10;;;8.80;99.90;;;;;;7388339;19;20131;-77
2023/03/02 11:21:49;;;;;;;20.80;11.47;;;8.80;99.90;;;;;;7388492;19;20127;-76
2023/03/02 11:24:31;;;;;;;18.20;10.77;;;8.80;99.90;;;;;;7390038;19;20178;-78
2023/03/02 11:27:18;;;;;;;17.73;11.77;;;9.10;99.90;;;;;;7386665;19;20126;-77
2023/03/02 11:29:49;;;;;;;16.57;10.83;;;9.40;99.90;;;;;;7387343;19;20234;-76
2023/03/02 11:32:29;;;;;;;19.17;11.47;;;9.50;99.90;;;;;;7386917;19;20131;-77
2023/03/02 11:34:58;;;;;;;18.27;11.63;;;9.80;99.90;;;;;;7387737;19;20218;-75
2023/03/02 11:37:47;;;;;;;19.87;12.47;;;9.90;99.90;;;;;;7388404;19;20134;-76
2023/03/02 11:40:22;;;;;;;18.88;13.00;;;9.90;99.90;;;;;;7389332;19;20503;-76
2023/03/02 11:42:50;;;;;;;19.47;12.30;;;9.60;99.90;;;;;;7389664;19;20130;-74
2023/03/02 11:45:26;;;;;;;18.53;11.30;;;9.70;99.90;;;;;;7388315;19;20127;-77
2023/03/02 11:48:19;;;;;;;15.13;10.57;;;10.00;99.90;;;;;;7388634;19;20149;-75
2023/03/02 11:51:16;;;;;;;18.37;11.23;;;10.00;99.90;;;;;;7389339;19;20134;-76
2023/03/02 11:53:49;;;;;;;18.30;11.43;;;10.10;99.90;;;;;;7387765;19;20166;-75
2023/03/02 11:56:15;;;;;;;17.87;10.70;;;10.10;99.90;;;;;;7389758;19;20134;-73
2023/03/02 11:58:52;;;;;;;19.90;12.03;;;10.10;99.90;;;;;;7383339;19;20154;-75
2023/03/02 12:01:23;;;;;;;17.73;11.40;;;10.30;99.90;;;;;;7383418;19;20163;-76
2023/03/02 12:04:24;;;;;;;20.10;11.97;;;10.50;99.90;;;;;;7375018;19;20165;-76
2023/03/02 12:07:34;;;;;;;17.50;12.10;;;10.30;99.90;;;;;;7364571;19;20250;-77
2023/03/02 12:10:30;;;;;;;19.67;11.90;;;10.60;99.90;;;;;;7363560;19;20139;-75
2023/03/02 12:13:24;;;;;;;19.20;11.15;;;10.50;99.90;;;;;;7349314;19;20134;-75
2023/03/02 12:15:50;;;;;;;18.20;12.03;;;10.60;99.90;;;;;;7376069;19;20138;-77
2023/03/02 12:19:22;;;;;;;15.83;10.27;;;10.80;99.90;;;;;;7378403;19;20733;-76
2023/03/02 12:21:57;;;;;;;17.73;10.13;;;10.70;99.90;;;;;;7387663;19;20519;-76
2023/03/02 12:24:27;;;;;;;18.70;10.90;;;10.50;99.90;;;;;;7385703;19;20161;-76
2023/03/02 12:27:24;;;;;;;15.90;10.43;;;10.50;99.90;;;;;;7376717;19;20928;-76
2023/03/02 12:30:06;;;;;;;17.67;10.67;;;10.30;99.90;;;;;;7387326;19;20126;-76
2023/03/02 12:32:32;;;;;;;16.60;10.07;;;10.40;99.90;;;;;;7384271;19;20138;-78
2023/03/02 12:35:02;;;;;;;16.57;10.17;;;10.60;99.90;;;;;;7385291;19;20139;-78
2023/03/02 12:37:48;;;;;;;19.60;10.33;;;10.40;99.90;;;;;;7385064;19;20151;-76
2023/03/02 12:40:32;;;;;;;17.33;10.27;;;10.30;99.90;;;;;;7387277;19;20571;-77
2023/03/02 12:43:17;;;;;;;16.63;10.53;;;10.40;99.90;;;;;;7386770;19;20142;-77
2023/03/02 12:46:02;;;;;;;15.27;9.63;;;10.40;99.90;;;;;;7386422;19;20149;-79
2023/03/02 12:48:47;;;;;;;16.97;11.07;;;10.70;99.90;;;;;;7385121;19;20479;-76
2023/03/02 12:51:54;;;;;;;18.20;10.77;;;11.00;99.90;;;;;;7386325;19;20205;-76
2023/03/02 12:54:23;;;;;;;14.40;9.60;;;10.90;99.90;;;;;;7390248;19;20145;-76
2023/03/02 12:56:49;;;;;;;19.03;10.13;;;10.90;99.90;;;;;;7386431;19;20149;-75